香港 の空港の天気 - METARとTAF

香港国際空港 ( VHHH / HKG ) - 香港 赤リョウ角
飛行場実況気象(Metar)
観測時間10/20 12:00 HKT (10/20 04:00 UTC)
風向・風速東 3m/s
視程10km以上
天気現象
少しの雲 雲底高度 850m
気温28℃
湿度55%
気圧1017hPa
METARVHHH 200400Z 08006KT 020V160 9999 FEW028 28/18 Q1017 NOSIG
過去の天気等 Google飛行場航空写真 Wunderground天気予報

過去48時間のMETAR

飛行場予報(TAF)
発表時間: 10/20 07:00 HKT (10/19 23:00 UTC)
予報対象時間: 20日8時 HKT ~ 21日14時 HKT
風向・風速東北東 5m/s
視程10km以上
少しの雲 雲底高度 760m
20日12時 HKT ~ 20日17時 HKT に一時的に
風向・風速西 5m/s
20日17時 HKT ~ 20日23時 HKT に一時的に
風向・風速南南東 5m/s
20日23時 HKT ~ 21日4時 HKT に一時的に
風向・風速不定 3m/s
21日11時 HKT ~ 21日14時 HKT に一時的に
風向・風速西 5m/s
TAF VHHH 192300Z 2000/2106 07010KT 9999 FEW025 TX29/2006Z TX29/2106Z TN24/2022Z
TEMPO 2004/2009 28010KT
TEMPO 2009/2015 16010KT
TEMPO 2015/2020 VRB05KT
TEMPO 2103/2106 28010KT